createdAt,value
2023-05-05T00:01:01.087Z,36.50
2023-05-05T00:03:29.415Z,40.00
2023-05-05T00:05:58.142Z,39.00
2023-05-05T00:08:26.246Z,40.00
2023-05-05T00:10:54.228Z,39.00
2023-05-05T00:13:22.128Z,39.50
2023-05-05T00:15:53.610Z,40.00
2023-05-05T00:20:49.872Z,37.00
2023-05-05T00:23:19.674Z,41.00
2023-05-05T00:25:48.045Z,41.00
2023-05-05T00:28:16.212Z,43.00
2023-05-05T00:30:44.197Z,45.50
2023-05-05T00:38:08.714Z,41.00
2023-05-05T00:40:38.003Z,43.00
2023-05-05T00:43:06.180Z,38.50
2023-05-05T00:45:34.147Z,44.00
2023-05-05T00:48:06.733Z,107.00
2023-05-05T00:53:04.574Z,120.50
2023-05-05T00:55:33.610Z,120.50
2023-05-05T00:58:02.811Z,116.00
2023-05-05T01:00:30.957Z,125.00
2023-05-05T01:05:33.268Z,66.00
2023-05-05T01:08:13.693Z,64.00
2023-05-05T01:10:46.622Z,55.50
2023-05-05T01:13:30.454Z,50.33
2023-05-05T01:16:01.807Z,47.00
2023-05-05T01:18:31.307Z,40.00
2023-05-05T01:21:17.718Z,39.00
2023-05-05T01:24:08.707Z,37.50
2023-05-05T01:26:49.247Z,39.50
2023-05-05T01:29:58.508Z,38.00
2023-05-05T01:32:29.343Z,41.50
2023-05-05T01:35:04.213Z,41.00
2023-05-05T01:37:39.033Z,44.00
2023-05-05T01:40:10.722Z,45.00
2023-05-05T01:45:08.244Z,42.00
2023-05-05T01:47:36.281Z,44.50
2023-05-05T01:50:05.189Z,47.00
2023-05-05T01:52:33.552Z,45.00
2023-05-05T01:55:02.581Z,44.00
2023-05-05T01:57:31.394Z,45.50
2023-05-05T01:59:59.414Z,49.00
2023-05-05T02:02:30.560Z,46.00
2023-05-05T02:04:58.661Z,46.67
2023-05-05T02:09:55.687Z,47.00
2023-05-05T02:12:24.086Z,45.00
2023-05-05T02:14:51.908Z,45.00
2023-05-05T02:17:19.778Z,46.00
2023-05-05T02:19:49.823Z,42.50
2023-05-05T02:24:45.960Z,43.00
2023-05-05T02:27:14.645Z,42.00
2023-05-05T02:29:48.453Z,44.00
2023-05-05T02:32:40.098Z,46.00
2023-05-05T02:35:15.625Z,40.00
2023-05-05T02:42:42.218Z,43.00
2023-05-05T02:47:42.299Z,45.00
2023-05-05T02:50:11.580Z,44.00
2023-05-05T02:52:42.762Z,45.00
2023-05-05T02:55:11.433Z,46.50
2023-05-05T02:57:53.913Z,44.00
2023-05-05T03:00:38.697Z,45.00
2023-05-05T03:03:07.650Z,46.00
2023-05-05T03:05:41.231Z,44.50
2023-05-05T03:08:10.279Z,42.00
2023-05-05T03:13:13.486Z,44.00
2023-05-05T03:15:48.522Z,42.00
2023-05-05T03:18:18.776Z,43.00
2023-05-05T03:23:22.764Z,43.00
2023-05-05T03:25:53.992Z,42.00
2023-05-05T03:28:34.696Z,37.00
2023-05-05T03:31:06.366Z,38.50
2023-05-05T03:33:35.564Z,40.00
2023-05-05T03:36:04.124Z,39.00
2023-05-05T03:38:32.230Z,35.50
2023-05-05T03:41:03.705Z,35.00
2023-05-05T03:43:32.228Z,36.00
2023-05-05T03:46:00.620Z,34.50
2023-05-05T03:48:29.521Z,34.50
2023-05-05T03:50:57.421Z,35.00
2023-05-05T03:53:26.539Z,38.00
2023-05-05T03:55:55.532Z,31.00
2023-05-05T03:58:23.503Z,31.00
2023-05-05T04:00:51.693Z,31.50
2023-05-05T04:03:20.150Z,31.00
2023-05-05T04:05:48.981Z,32.00
2023-05-05T04:08:17.098Z,35.00
2023-05-05T04:10:45.953Z,35.00
2023-05-05T04:13:14.301Z,36.00
2023-05-05T04:15:46.292Z,37.00
2023-05-05T04:18:14.461Z,38.00
2023-05-05T04:20:42.502Z,38.00
2023-05-05T04:23:11.006Z,35.00
2023-05-05T04:28:07.308Z,42.00
2023-05-05T04:30:35.314Z,43.00
2023-05-05T04:33:03.752Z,46.00
2023-05-05T04:35:31.985Z,48.00
2023-05-05T04:38:00.018Z,51.00
2023-05-05T04:45:27.005Z,42.50
2023-05-05T04:47:55.943Z,42.00
2023-05-05T04:50:24.096Z,44.00
2023-05-05T04:55:21.318Z,43.50
2023-05-05T04:57:49.164Z,43.50
2023-05-05T05:00:17.845Z,44.00
2023-05-05T05:02:45.998Z,45.00
2023-05-05T05:05:14.287Z,41.50
2023-05-05T05:07:42.317Z,46.00
2023-05-05T05:12:39.392Z,42.00
2023-05-05T05:15:08.358Z,46.50
2023-05-05T05:17:36.365Z,45.00
2023-05-05T05:20:05.107Z,46.50
2023-05-05T05:22:33.269Z,44.00
2023-05-05T05:25:02.408Z,41.00
2023-05-05T05:30:45.316Z,37.00
2023-05-05T05:33:14.750Z,32.00
2023-05-05T05:35:43.264Z,33.50
2023-05-05T05:38:11.694Z,34.00
2023-05-05T05:40:39.731Z,34.00
2023-05-05T05:43:07.866Z,33.00
2023-05-05T05:45:36.489Z,29.00
2023-05-05T05:48:05.619Z,36.00
2023-05-05T05:50:33.679Z,36.00
2023-05-05T05:53:01.943Z,34.00
2023-05-05T05:55:30.143Z,30.00
2023-05-05T05:57:58.179Z,34.00
2023-05-05T06:00:26.438Z,36.00
2023-05-05T06:05:27.581Z,38.00
2023-05-05T06:07:55.773Z,36.50
2023-05-05T06:10:27.607Z,43.00
2023-05-05T06:13:01.296Z,43.00
2023-05-05T06:15:30.377Z,42.50
2023-05-05T06:17:58.665Z,45.00
2023-05-05T06:20:27.658Z,40.00
2023-05-05T06:22:55.772Z,41.00
2023-05-05T06:25:24.563Z,37.50
2023-05-05T06:27:53.109Z,37.00
2023-05-05T06:30:20.956Z,35.00
2023-05-05T06:32:49.262Z,39.00
2023-05-05T06:35:17.452Z,39.50
2023-05-05T06:37:45.733Z,42.00
2023-05-05T06:40:13.598Z,36.00
2023-05-05T06:42:41.891Z,31.00
2023-05-05T06:45:11.601Z,32.00
2023-05-05T06:47:42.237Z,25.00
2023-05-05T06:50:10.772Z,28.00
2023-05-05T06:52:38.937Z,30.50
2023-05-05T06:55:07.303Z,26.00
2023-05-05T07:00:06.078Z,28.00
2023-05-05T07:02:34.234Z,19.50
2023-05-05T07:05:02.341Z,16.00
2023-05-05T07:07:31.807Z,19.00
2023-05-05T07:10:00.055Z,17.00
2023-05-05T07:12:29.279Z,20.00
2023-05-05T07:14:57.432Z,19.00
2023-05-05T07:17:25.336Z,16.50
2023-05-05T07:19:55.029Z,15.00
2023-05-05T07:22:22.832Z,17.00
2023-05-05T07:24:53.437Z,14.50
2023-05-05T07:27:22.527Z,13.00
2023-05-05T07:29:51.310Z,16.00
2023-05-05T07:32:19.396Z,15.50
2023-05-05T07:34:47.395Z,13.67
2023-05-05T07:37:15.333Z,14.00
2023-05-05T07:39:43.290Z,18.00
2023-05-05T07:42:11.489Z,17.00
2023-05-05T07:44:39.408Z,18.00
2023-05-05T07:47:07.307Z,17.00
2023-05-05T07:49:36.619Z,21.00
2023-05-05T07:52:05.044Z,15.50
2023-05-05T07:54:32.977Z,11.50
2023-05-05T07:57:01.905Z,14.50
2023-05-05T07:59:29.863Z,12.00
2023-05-05T08:01:57.756Z,14.00
2023-05-05T08:04:25.671Z,15.00
2023-05-05T08:06:53.604Z,11.00
2023-05-05T08:09:21.520Z,12.00
2023-05-05T08:11:49.538Z,10.50
2023-05-05T08:14:17.406Z,10.00
2023-05-05T08:16:45.302Z,15.50
2023-05-05T08:19:27.672Z,13.00
2023-05-05T08:21:56.593Z,17.00
2023-05-05T08:24:24.451Z,18.00
2023-05-05T08:29:20.064Z,14.00
2023-05-05T08:31:48.063Z,15.00
2023-05-05T08:34:16.106Z,14.00
2023-05-05T08:36:43.949Z,14.00
2023-05-05T08:39:12.047Z,17.00
2023-05-05T08:41:39.967Z,16.00
2023-05-05T08:44:08.387Z,14.50
2023-05-05T08:46:36.842Z,14.50
2023-05-05T08:49:05.782Z,15.00
2023-05-05T08:51:38.571Z,17.50
2023-05-05T08:56:38.417Z,14.00
2023-05-05T08:59:06.274Z,17.00
2023-05-05T09:01:34.362Z,17.00
2023-05-05T09:04:04.072Z,15.00
2023-05-05T09:06:33.889Z,21.00
2023-05-05T09:09:01.983Z,18.00
2023-05-05T09:11:29.846Z,21.50
2023-05-05T09:13:57.644Z,20.50
2023-05-05T09:16:25.677Z,16.50
2023-05-05T09:19:11.539Z,20.00
2023-05-05T09:21:46.790Z,20.50
2023-05-05T09:24:15.701Z,18.00
2023-05-05T09:26:45.162Z,22.00
2023-05-05T09:29:20.067Z,21.00
2023-05-05T09:32:08.894Z,21.00
2023-05-05T09:34:37.526Z,21.00
2023-05-05T09:37:06.230Z,20.50
2023-05-05T09:39:34.401Z,25.00
2023-05-05T09:42:02.997Z,24.00
2023-05-05T09:44:35.699Z,23.00
2023-05-05T09:47:07.153Z,20.00
2023-05-05T09:49:40.071Z,24.00
2023-05-05T09:52:16.632Z,21.00
2023-05-05T09:54:44.803Z,20.50
2023-05-05T09:57:38.785Z,21.50
2023-05-05T10:00:08.197Z,19.00
2023-05-05T10:02:38.424Z,19.67
2023-05-05T10:05:10.224Z,23.00
2023-05-05T10:07:40.368Z,20.00
2023-05-05T10:10:12.341Z,21.50
2023-05-05T10:12:40.567Z,22.00
2023-05-05T10:15:10.041Z,20.00
2023-05-05T10:20:36.312Z,20.00
2023-05-05T10:23:06.397Z,16.00
2023-05-05T10:25:42.687Z,23.00
2023-05-05T10:28:10.665Z,19.50
2023-05-05T10:30:42.297Z,17.00
2023-05-05T10:35:55.686Z,18.00
2023-05-05T10:38:24.800Z,17.00
2023-05-05T10:40:54.919Z,14.00
2023-05-05T10:45:50.622Z,15.00
2023-05-05T10:48:33.375Z,14.00
2023-05-05T10:51:39.344Z,18.00
2023-05-05T10:54:14.074Z,15.00
2023-05-05T10:56:42.052Z,23.00
2023-05-05T10:59:38.111Z,13.00
2023-05-05T11:02:28.516Z,14.00
2023-05-05T11:05:14.478Z,11.00
2023-05-05T11:07:43.347Z,11.00
2023-05-05T11:10:12.606Z,10.00
2023-05-05T11:13:10.152Z,9.00
2023-05-05T11:15:38.339Z,9.50
2023-05-05T11:18:08.289Z,14.00
2023-05-05T11:20:43.727Z,12.00
2023-05-05T11:23:12.942Z,9.00
2023-05-05T11:25:45.377Z,16.50
2023-05-05T11:28:18.095Z,10.00
2023-05-05T11:31:06.185Z,11.00
2023-05-05T11:33:38.290Z,13.00
2023-05-05T11:36:07.650Z,15.00
2023-05-05T11:38:50.821Z,14.00
2023-05-05T11:44:11.063Z,12.00
2023-05-05T11:47:05.001Z,16.50
2023-05-05T11:49:33.707Z,12.00
2023-05-05T11:52:05.907Z,14.00
2023-05-05T11:54:35.374Z,17.00
2023-05-05T11:57:05.596Z,13.00
2023-05-05T11:59:34.037Z,14.00
2023-05-05T12:02:03.271Z,11.00
2023-05-05T12:04:32.031Z,15.50
2023-05-05T12:09:27.822Z,15.00
2023-05-05T12:11:58.836Z,13.00
2023-05-05T12:14:26.775Z,13.00
2023-05-05T12:16:58.722Z,14.00
2023-05-05T12:19:33.318Z,15.50
2023-05-05T12:22:02.139Z,17.50
2023-05-05T12:24:30.543Z,13.00
2023-05-05T12:27:08.533Z,16.00
2023-05-05T12:29:36.391Z,13.00
2023-05-05T12:32:04.640Z,13.00
2023-05-05T12:34:32.721Z,14.00
2023-05-05T12:37:01.011Z,14.00
2023-05-05T12:39:38.449Z,19.00
2023-05-05T12:42:06.654Z,14.50
2023-05-05T12:44:36.326Z,15.50
2023-05-05T12:47:04.995Z,13.00
2023-05-05T12:49:48.498Z,15.00
2023-05-05T12:52:16.522Z,14.00
2023-05-05T12:54:55.084Z,15.00
2023-05-05T12:57:23.354Z,12.00
2023-05-05T12:59:52.790Z,14.00
2023-05-05T13:02:21.054Z,15.00
2023-05-05T13:07:19.276Z,15.50
2023-05-05T13:09:50.475Z,14.50
2023-05-05T13:12:18.589Z,15.00
2023-05-05T13:14:46.829Z,24.00
2023-05-05T13:17:14.932Z,14.00
2023-05-05T13:19:46.127Z,22.00
2023-05-05T13:22:14.313Z,13.00
2023-05-05T13:24:51.541Z,12.00
2023-05-05T13:27:20.666Z,13.00
2023-05-05T13:29:48.713Z,14.00
2023-05-05T13:32:16.677Z,9.00
2023-05-05T13:34:44.791Z,11.50
2023-05-05T13:37:12.645Z,13.00
2023-05-05T13:39:40.669Z,23.00
2023-05-05T13:42:08.809Z,22.50
2023-05-05T13:44:36.790Z,19.00
2023-05-05T13:47:04.870Z,19.50
2023-05-05T13:49:32.830Z,11.00
2023-05-05T13:52:00.722Z,11.00
2023-05-05T13:54:28.668Z,13.00
2023-05-05T13:56:57.947Z,11.50
2023-05-05T13:59:25.937Z,12.00
2023-05-05T14:01:54.014Z,11.00
2023-05-05T14:04:21.990Z,13.00
2023-05-05T14:06:49.898Z,9.50
2023-05-05T14:09:17.878Z,18.50
2023-05-05T14:11:45.869Z,9.67
2023-05-05T14:14:13.840Z,12.00
2023-05-05T14:16:41.709Z,14.50
2023-05-05T14:21:37.470Z,18.50
2023-05-05T14:24:06.344Z,11.00
2023-05-05T14:26:34.189Z,8.50
2023-05-05T14:29:02.261Z,10.00
2023-05-05T14:31:30.363Z,15.00
2023-05-05T14:33:58.496Z,14.00
2023-05-05T14:36:27.084Z,14.00
2023-05-05T14:38:55.111Z,14.00
2023-05-05T14:43:51.193Z,14.00
2023-05-05T14:46:19.105Z,15.00
2023-05-05T14:48:47.466Z,14.00
2023-05-05T14:51:16.050Z,14.00
2023-05-05T14:53:44.196Z,13.00
2023-05-05T14:56:12.167Z,14.00
2023-05-05T14:58:40.519Z,12.50
2023-05-05T15:01:08.490Z,13.00
2023-05-05T15:03:36.463Z,12.00
2023-05-05T15:06:05.693Z,15.00
2023-05-05T15:08:33.856Z,14.00
2023-05-05T15:11:01.917Z,14.00
2023-05-05T15:18:26.297Z,16.00
2023-05-05T15:20:54.229Z,13.00
2023-05-05T15:23:22.177Z,14.00
2023-05-05T15:25:50.301Z,14.50
2023-05-05T15:28:18.827Z,14.33
2023-05-05T15:30:46.892Z,16.00
2023-05-05T15:33:14.861Z,13.50
2023-05-05T15:35:43.085Z,15.00
2023-05-05T15:38:11.009Z,14.50
2023-05-05T15:40:39.105Z,15.00
2023-05-05T15:43:07.056Z,15.00
2023-05-05T15:45:35.215Z,15.00
2023-05-05T15:48:03.132Z,15.50
2023-05-05T15:50:31.058Z,15.50
2023-05-05T15:52:59.122Z,18.00
2023-05-05T15:55:27.357Z,16.50
2023-05-05T15:57:55.575Z,15.00
2023-05-05T16:00:23.751Z,16.00
2023-05-05T16:02:51.733Z,18.00
2023-05-05T16:05:22.105Z,16.00
2023-05-05T16:07:51.843Z,16.00
2023-05-05T16:10:21.190Z,17.00
2023-05-05T16:12:49.273Z,16.00
2023-05-05T16:15:17.707Z,20.00
2023-05-05T16:17:45.834Z,18.00
2023-05-05T16:20:13.763Z,16.00
2023-05-05T16:22:41.659Z,19.00
2023-05-05T16:25:09.779Z,18.00
2023-05-05T16:27:38.153Z,21.00
2023-05-05T16:32:35.232Z,16.00
2023-05-05T16:35:03.170Z,15.00
2023-05-05T16:37:31.061Z,17.50
2023-05-05T16:42:27.133Z,17.00
2023-05-05T16:44:55.314Z,15.00
2023-05-05T16:47:23.412Z,15.00
2023-05-05T16:49:52.631Z,15.00
2023-05-05T16:52:20.583Z,17.50
2023-05-05T16:57:23.744Z,20.00
2023-05-05T16:59:55.095Z,16.00
2023-05-05T17:02:23.113Z,20.50
2023-05-05T17:04:51.103Z,25.00
2023-05-05T17:07:19.036Z,31.00
2023-05-05T17:09:47.018Z,30.00
2023-05-05T17:12:14.960Z,28.00
2023-05-05T17:14:43.111Z,30.50
2023-05-05T17:17:11.220Z,18.00
2023-05-05T17:22:07.503Z,16.00
2023-05-05T17:27:03.973Z,22.00
2023-05-05T17:29:32.751Z,21.50
2023-05-05T17:32:00.830Z,22.00
2023-05-05T17:34:28.753Z,22.50
2023-05-05T17:36:56.843Z,18.50
2023-05-05T17:39:25.009Z,20.00
2023-05-05T17:41:52.851Z,17.00
2023-05-05T17:44:21.574Z,21.00
2023-05-05T17:46:49.639Z,22.00
2023-05-05T17:49:17.574Z,25.00
2023-05-05T17:51:45.692Z,27.50
2023-05-05T17:54:13.533Z,22.00
2023-05-05T17:56:41.499Z,26.00
2023-05-05T17:59:09.393Z,27.00
2023-05-05T18:04:05.377Z,26.50
2023-05-05T18:06:33.420Z,26.00
2023-05-05T18:09:01.290Z,36.50
2023-05-05T18:11:31.087Z,32.00
2023-05-05T18:13:59.074Z,31.50
2023-05-05T18:16:26.866Z,38.50
2023-05-05T18:18:54.784Z,44.00
2023-05-05T18:21:22.730Z,47.00
2023-05-05T18:23:50.815Z,45.50
2023-05-05T18:26:18.562Z,43.00
2023-05-05T18:28:46.549Z,44.00
2023-05-05T18:31:15.023Z,49.00
2023-05-05T18:33:43.571Z,49.00
2023-05-05T18:36:12.495Z,47.00
2023-05-05T18:38:40.459Z,38.00
2023-05-05T18:44:22.816Z,46.00
2023-05-05T18:46:51.434Z,44.00
2023-05-05T18:49:19.364Z,41.50
2023-05-05T18:51:47.252Z,44.00
2023-05-05T18:54:15.226Z,43.00
2023-05-05T18:56:43.045Z,43.00
2023-05-05T18:59:11.148Z,45.00
2023-05-05T19:01:39.228Z,46.00
2023-05-05T19:04:15.593Z,48.00
2023-05-05T19:06:52.533Z,46.00
2023-05-05T19:09:21.008Z,44.00
2023-05-05T19:11:48.984Z,47.50
2023-05-05T19:14:17.813Z,51.00
2023-05-05T19:16:46.105Z,73.25
2023-05-05T19:19:14.072Z,71.67
2023-05-05T19:21:41.958Z,54.50
2023-05-05T19:24:09.849Z,46.50
2023-05-05T19:26:37.921Z,48.50
2023-05-05T19:29:05.777Z,74.00
2023-05-05T19:31:33.731Z,157.50
2023-05-05T19:34:02.960Z,123.00
2023-05-05T19:36:31.820Z,89.00
2023-05-05T19:39:01.841Z,89.00
2023-05-05T19:41:30.886Z,107.00
2023-05-05T19:43:58.872Z,219.00
2023-05-05T19:46:26.951Z,267.50
2023-05-05T19:48:54.903Z,205.00
2023-05-05T19:51:23.041Z,79.50
2023-05-05T19:53:50.974Z,62.00
2023-05-05T19:56:18.958Z,58.00
2023-05-05T19:58:54.066Z,75.00
2023-05-05T20:01:22.007Z,66.00
2023-05-05T20:03:51.290Z,173.00
2023-05-05T20:06:19.389Z,215.00
2023-05-05T20:08:49.774Z,192.00
2023-05-05T20:11:19.726Z,243.00
2023-05-05T20:13:47.879Z,268.00
2023-05-05T20:16:18.016Z,264.00
2023-05-05T20:18:48.719Z,272.50
2023-05-05T20:21:17.080Z,217.50
2023-05-05T20:23:45.834Z,129.00
2023-05-05T20:26:16.251Z,72.00
2023-05-05T20:28:45.896Z,53.00
2023-05-05T20:31:14.712Z,69.50
2023-05-05T20:33:42.620Z,51.00
2023-05-05T20:36:11.454Z,46.00
2023-05-05T20:41:11.616Z,49.00
2023-05-05T20:43:39.681Z,49.50
2023-05-05T20:46:13.410Z,54.00
2023-05-05T20:48:43.909Z,52.00
2023-05-05T20:51:11.784Z,71.00
2023-05-05T20:53:39.700Z,70.00
2023-05-05T20:56:08.944Z,55.00
2023-05-05T20:58:37.589Z,50.00
2023-05-05T21:01:05.574Z,45.00
2023-05-05T21:03:35.998Z,44.00
2023-05-05T21:06:04.747Z,42.50
2023-05-05T21:08:35.099Z,42.00
2023-05-05T21:11:03.133Z,40.00
2023-05-05T21:13:32.042Z,40.00
2023-05-05T21:16:00.751Z,47.00
2023-05-05T21:18:28.626Z,47.67
2023-05-05T21:20:56.582Z,48.00
2023-05-05T21:23:24.570Z,44.50
2023-05-05T21:25:52.607Z,47.00
2023-05-05T21:28:20.529Z,45.50
2023-05-05T21:31:10.182Z,54.00
2023-05-05T21:33:38.871Z,50.50
2023-05-05T21:36:06.925Z,45.00
2023-05-05T21:38:36.877Z,48.00
2023-05-05T21:41:04.841Z,47.00
2023-05-05T21:43:32.677Z,48.00
2023-05-05T21:46:04.432Z,47.00
2023-05-05T21:48:32.794Z,45.00
2023-05-05T21:51:01.155Z,48.00
2023-05-05T21:53:28.976Z,46.00
2023-05-05T21:55:56.982Z,46.00
2023-05-05T21:58:25.229Z,44.00
2023-05-05T22:00:53.255Z,46.00
2023-05-05T22:03:21.374Z,44.50
2023-05-05T22:05:49.513Z,46.50
2023-05-05T22:08:17.940Z,46.50
2023-05-05T22:10:46.374Z,51.00
2023-05-05T22:13:14.821Z,53.00
2023-05-05T22:15:47.214Z,48.00
2023-05-05T22:18:15.907Z,43.00
2023-05-05T22:20:44.118Z,47.00
2023-05-05T22:23:12.060Z,48.00
2023-05-05T22:25:40.127Z,43.00
2023-05-05T22:28:08.099Z,46.00
2023-05-05T22:30:36.272Z,45.50
2023-05-05T22:33:04.382Z,45.50
2023-05-05T22:35:32.606Z,45.00
2023-05-05T22:38:00.594Z,42.00
2023-05-05T22:40:28.541Z,46.00
2023-05-05T22:42:56.388Z,46.00
2023-05-05T22:45:24.308Z,45.75
2023-05-05T22:47:52.516Z,45.00
2023-05-05T22:50:20.375Z,45.00
2023-05-05T22:52:48.383Z,48.00
2023-05-05T22:55:16.566Z,47.00
2023-05-05T22:57:44.429Z,48.00
2023-05-05T23:00:12.619Z,45.00
2023-05-05T23:02:40.837Z,46.00
2023-05-05T23:05:09.459Z,47.00
2023-05-05T23:07:37.699Z,47.50
2023-05-05T23:10:06.494Z,46.50
2023-05-05T23:12:34.467Z,51.00
2023-05-05T23:17:30.114Z,53.00
2023-05-05T23:19:58.115Z,51.67
2023-05-05T23:22:26.033Z,50.00
2023-05-05T23:24:54.025Z,51.50
2023-05-05T23:27:23.101Z,49.00
2023-05-05T23:29:51.032Z,48.00
2023-05-05T23:32:19.359Z,46.00
2023-05-05T23:34:47.187Z,48.00
2023-05-05T23:37:14.976Z,49.00
2023-05-05T23:39:42.976Z,47.00
2023-05-05T23:42:10.919Z,46.50
2023-05-05T23:44:38.788Z,50.00
2023-05-05T23:47:06.968Z,48.00
2023-05-05T23:49:34.690Z,46.00
2023-05-05T23:52:03.326Z,43.00
2023-05-05T23:54:31.263Z,48.50
2023-05-05T23:57:00.331Z,45.00
2023-05-05T23:59:28.287Z,44.00
